Accueil
METAR-TAF:

METAR-TAF

Aéroports :

Port Alsworth, Alaska, États-Unis

latitude: 60-12N, longitude: 154-19W, altitude: 85 m

Observation

Le bulletin a été fait il y a 1 heure et 4 minutes, à 21:52 UTC
Vent calme
Température -15°C
Humidité 60%
Pression 1010 hPa
Visibilité: 48.3 km
Nuages fragmentés à une hauteur de 6000 ft

METAR: PALJ 222152Z 00000KT 30SM BKN060 M15/M21 A2983 RMK EST PASS OPN NOSPECI

Heure: 13:56 (22:56 UTC)


TAF: absent

Observations et prévisions météorologiques de plus de 4000 aéroports (messages METAR et TAF).

Les stations disponibles sont représentées par des disques jaunes et rouges sur la carte.

Passer la souris dessus pour voir le nom de la station.

Cliquer dessus pour voir les observations et prévisions météorologiques.

Pour changer de carte: cliquez sur les boutons verts avec une croix noire pour zoomer, sur le bouton vert avec un tiret pour effectuer un zoom arrière, ou sur les flèches vertes pour les cartes adjacentes.


METAR-TAF: